This is the latest recevied weather packets stored in our database for station/object N4TLC. If no packets are shown the sender has not sent any weather packets the latest 10 day(s).
| Time | Temp. | Humidity | Pressure | Rain* | Wind** | Luminosity | Snow |
|---|---|---|---|---|---|---|---|
| 1777814448 | 10° C | 48% | 1021.7 hPa | 0 mm | - | 47 W/m² | - |
| 1777814145 | 10° C | 51% | 1021.6 hPa | 0 mm | - | 46 W/m² | - |
| 1777813842 | 10.56° C | 49% | 1021.8 hPa | 0 mm | - | 45 W/m² | - |
| 1777813539 | 10° C | 52% | 1021.7 hPa | 0 mm | - | 45 W/m² | - |
| 1777813238 | 10° C | 54% | 1021.9 hPa | 0 mm | - | 44 W/m² | - |
| 1777812935 | 9.44° C | 56% | 1021.8 hPa | 0 mm | - | 44 W/m² | - |
| 1777812632 | 9.44° C | 56% | 1022 hPa | 0 mm | - | 43 W/m² | - |
| 1777812328 | 8.89° C | 61% | 1021.8 hPa | 0 mm | - | 42 W/m² | - |
| 1777812027 | 8.89° C | 63% | 1021.9 hPa | 0 mm | - | 41 W/m² | - |
| 1777811725 | 8.33° C | 67% | 1021.8 hPa | 0 mm | - | 40 W/m² | - |
| 1777811421 | 7.78° C | 67% | 1021.8 hPa | 0 mm | - | 40 W/m² | - |
| 1777811118 | 7.78° C | 67% | 1021.8 hPa | 0 mm | - | 39 W/m² | - |
| 1777810815 | 7.22° C | 69% | 1021.7 hPa | 0 mm | - | 38 W/m² | - |
| 1777810512 | 7.22° C | 69% | 1021.6 hPa | 0 mm | - | 37 W/m² | - |
| 1777810208 | 6.67° C | 71% | 1021.6 hPa | 0 mm | - | 36 W/m² | - |
| 1777809904 | 6.67° C | 72% | 1021.6 hPa | 0 mm | - | 35 W/m² | - |
| 1777809603 | 6.11° C | 73% | 1021.5 hPa | 0 mm | - | 34 W/m² | - |
| 1777809300 | 6.11° C | 73% | 1021.4 hPa | 0 mm | - | 34 W/m² | - |
| 1777808997 | 5.56° C | 74% | 1021.4 hPa | 0 mm | - | 33 W/m² | - |
| 1777808695 | 5.56° C | 75% | 1021.4 hPa | 0 mm | - | 31 W/m² | - |
| 1777808391 | 5° C | 77% | 1021.4 hPa | 0 mm | - | 30 W/m² | - |
| 1777808090 | 5° C | 78% | 1021.4 hPa | 0 mm | - | 29 W/m² | - |
| 1777807787 | 4.44° C | 80% | 1021.1 hPa | 0 mm | - | 28 W/m² | - |
| 1777807485 | 3.89° C | 83% | 1021.1 hPa | 0 mm | - | 26 W/m² | - |
| 1777807180 | 3.89° C | 84% | 1021 hPa | 0 mm | - | 25 W/m² | - |
* Rain latest hour (hover to see other rain measurements)
** Current wind speed in m/s (hover to see current wind gust speed)